createdAt,value
2018-02-23T00:00:00.233Z,1018.08
2018-02-23T00:01:00.220Z,1018.12
2018-02-23T00:02:00.207Z,1018.11
2018-02-23T00:03:00.197Z,1018.07
2018-02-23T00:04:00.185Z,1018.06
2018-02-23T00:05:00.171Z,1018.03
2018-02-23T00:06:00.157Z,1018.02
2018-02-23T00:07:00.144Z,1017.97
2018-02-23T00:08:00.150Z,1017.96
2018-02-23T00:09:00.117Z,1017.98
2018-02-23T00:10:00.112Z,1017.94
2018-02-23T00:11:00.092Z,1017.92
2018-02-23T00:12:00.075Z,1017.91
2018-02-23T00:13:00.064Z,1017.95
2018-02-23T00:14:00.049Z,1017.92
2018-02-23T00:15:00.038Z,1017.89
2018-02-23T00:16:00.023Z,1017.94
2018-02-23T00:17:00.014Z,1017.92
2018-02-23T00:17:59.998Z,1017.86
2018-02-23T00:18:59.984Z,1017.94
2018-02-23T00:19:59.972Z,1017.89
2018-02-23T00:20:59.961Z,1017.94
2018-02-23T00:21:59.947Z,1017.92
2018-02-23T00:22:59.934Z,1017.91
2018-02-23T00:23:59.920Z,1017.85
2018-02-23T00:24:59.906Z,1017.91
2018-02-23T00:25:59.894Z,1017.99
2018-02-23T00:26:59.880Z,1017.95
2018-02-23T00:27:59.864Z,1017.96
2018-02-23T00:28:59.850Z,1017.98
2018-02-23T00:29:59.838Z,1018.00
2018-02-23T00:30:59.826Z,1017.99
2018-02-23T00:31:59.811Z,1017.94
2018-02-23T00:32:59.797Z,1017.99
2018-02-23T00:33:59.785Z,1017.95
2018-02-23T00:34:59.772Z,1017.98
2018-02-23T00:35:59.760Z,1018.01
2018-02-23T00:36:59.748Z,1017.93
2018-02-23T00:37:59.735Z,1017.97
2018-02-23T00:38:59.721Z,1017.90
2018-02-23T00:39:59.706Z,1017.93
2018-02-23T00:40:59.694Z,1017.96
2018-02-23T00:41:59.681Z,1017.96
2018-02-23T00:42:59.667Z,1017.93
2018-02-23T00:43:59.650Z,1017.98
2018-02-23T00:44:59.640Z,1017.95
2018-02-23T00:45:59.624Z,1018.01
2018-02-23T00:46:59.609Z,1018.02
2018-02-23T00:47:59.600Z,1018.02
2018-02-23T00:48:59.585Z,1018.03
2018-02-23T00:49:59.574Z,1017.99
2018-02-23T00:50:59.560Z,1017.99
2018-02-23T00:51:59.543Z,1018.04
2018-02-23T00:52:59.528Z,1018.05
2018-02-23T00:53:59.531Z,1018.02
2018-02-23T00:54:59.504Z,1017.97
2018-02-23T00:55:59.491Z,1017.98
2018-02-23T00:56:59.476Z,1017.96
2018-02-23T00:57:59.462Z,1018.02
2018-02-23T00:58:59.449Z,1018.02
2018-02-23T00:59:59.437Z,1017.99
2018-02-23T01:00:59.425Z,1017.99
2018-02-23T01:01:59.411Z,1018.00
2018-02-23T01:02:59.398Z,1017.97
2018-02-23T01:03:59.383Z,1017.97
2018-02-23T01:04:59.370Z,1017.98
2018-02-23T01:05:59.357Z,1017.95
2018-02-23T01:06:59.345Z,1018.00
2018-02-23T01:07:59.327Z,1018.00
2018-02-23T01:08:59.314Z,1018.00
2018-02-23T01:09:59.299Z,1018.06
2018-02-23T01:10:59.289Z,1017.97
2018-02-23T01:11:59.272Z,1017.97
2018-02-23T01:12:59.259Z,1017.95
2018-02-23T01:13:59.247Z,1017.92
2018-02-23T01:14:59.233Z,1017.93
2018-02-23T01:15:59.220Z,1017.95
2018-02-23T01:16:59.207Z,1017.92
2018-02-23T01:17:59.197Z,1017.90
2018-02-23T01:18:59.181Z,1017.85
2018-02-23T01:19:59.166Z,1017.90
2018-02-23T01:20:59.158Z,1017.97
2018-02-23T01:21:59.140Z,1017.96
2018-02-23T01:22:59.127Z,1017.91
2018-02-23T01:23:59.110Z,1017.94
2018-02-23T01:24:59.098Z,1017.88
2018-02-23T01:25:59.083Z,1017.86
2018-02-23T01:26:59.070Z,1017.92
2018-02-23T01:27:59.057Z,1017.86
2018-02-23T01:28:59.046Z,1017.84
2018-02-23T01:29:59.029Z,1017.85
2018-02-23T01:30:59.016Z,1017.84
2018-02-23T01:31:59.004Z,1017.83
2018-02-23T01:32:58.993Z,1017.87
2018-02-23T01:33:58.978Z,1017.88
2018-02-23T01:34:58.965Z,1017.89
2018-02-23T01:35:58.950Z,1017.86
2018-02-23T01:36:58.940Z,1017.85
2018-02-23T01:37:58.923Z,1017.75
2018-02-23T01:38:58.911Z,1017.78
2018-02-23T01:39:58.893Z,1017.74
2018-02-23T01:40:58.883Z,1017.79
2018-02-23T01:41:58.867Z,1017.79
2018-02-23T01:42:58.858Z,1017.79
2018-02-23T01:43:58.840Z,1017.80
2018-02-23T01:44:58.827Z,1017.80
2018-02-23T01:45:58.812Z,1017.78
2018-02-23T01:46:58.799Z,1017.70
2018-02-23T01:47:58.788Z,1017.73
2018-02-23T01:48:58.773Z,1017.69
2018-02-23T01:49:58.762Z,1017.73
2018-02-23T01:50:58.748Z,1017.76
2018-02-23T01:51:58.734Z,1017.76
2018-02-23T01:52:58.719Z,1017.74
2018-02-23T01:53:58.707Z,1017.67
2018-02-23T01:54:58.693Z,1017.69
2018-02-23T01:55:58.677Z,1017.63
2018-02-23T01:56:58.663Z,1017.71
2018-02-23T01:57:58.649Z,1017.73
2018-02-23T01:58:58.636Z,1017.64
2018-02-23T01:59:58.621Z,1017.66
2018-02-23T02:00:58.608Z,1017.59
2018-02-23T02:01:58.596Z,1017.59
2018-02-23T02:02:58.581Z,1017.57
2018-02-23T02:03:58.569Z,1017.56
2018-02-23T02:04:58.555Z,1017.58
2018-02-23T02:05:58.544Z,1017.55
2018-02-23T02:06:58.531Z,1017.61
2018-02-23T02:07:58.515Z,1017.61
2018-02-23T02:08:58.500Z,1017.60
2018-02-23T02:09:58.488Z,1017.58
2018-02-23T02:10:58.480Z,1017.63
2018-02-23T02:11:58.457Z,1017.60
2018-02-23T02:12:58.444Z,1017.68
2018-02-23T02:13:58.432Z,1017.58
2018-02-23T02:14:58.416Z,1017.60
2018-02-23T02:15:58.402Z,1017.58
2018-02-23T02:16:58.390Z,1017.57
2018-02-23T02:17:58.376Z,1017.57
2018-02-23T02:18:58.362Z,1017.58
2018-02-23T02:19:58.350Z,1017.61
2018-02-23T02:20:58.337Z,1017.60
2018-02-23T02:21:58.322Z,1017.63
2018-02-23T02:22:58.310Z,1017.59
2018-02-23T02:23:58.296Z,1017.55
2018-02-23T02:24:58.280Z,1017.63
2018-02-23T02:25:58.267Z,1017.57
2018-02-23T02:26:58.253Z,1017.64
2018-02-23T02:27:58.237Z,1017.59
2018-02-23T02:28:58.224Z,1017.60
2018-02-23T02:29:58.210Z,1017.59
2018-02-23T02:30:58.198Z,1017.60
2018-02-23T02:31:58.184Z,1017.64
2018-02-23T02:32:58.168Z,1017.56
2018-02-23T02:33:58.159Z,1017.55
2018-02-23T02:34:58.143Z,1017.55
2018-02-23T02:35:58.133Z,1017.56
2018-02-23T02:36:58.116Z,1017.51
2018-02-23T02:37:58.102Z,1017.49
2018-02-23T02:38:58.090Z,1017.47
2018-02-23T02:39:58.075Z,1017.45
2018-02-23T02:40:58.063Z,1017.42
2018-02-23T02:41:58.047Z,1017.45
2018-02-23T02:42:58.046Z,1017.49
2018-02-23T02:43:58.016Z,1017.42
2018-02-23T02:44:58.001Z,1017.46
2018-02-23T02:45:57.989Z,1017.40
2018-02-23T02:46:57.976Z,1017.32
2018-02-23T02:47:57.959Z,1017.35
2018-02-23T02:48:57.946Z,1017.40
2018-02-23T02:49:57.935Z,1017.46
2018-02-23T02:50:57.922Z,1017.47
2018-02-23T02:51:57.907Z,1017.43
2018-02-23T02:52:57.894Z,1017.40
2018-02-23T02:53:57.880Z,1017.40
2018-02-23T02:54:57.876Z,1017.36
2018-02-23T02:55:57.850Z,1017.37
2018-02-23T02:56:57.837Z,1017.48
2018-02-23T02:57:57.821Z,1017.38
2018-02-23T02:58:57.808Z,1017.38
2018-02-23T02:59:57.797Z,1017.37
2018-02-23T03:00:57.785Z,1017.45
2018-02-23T03:01:57.771Z,1017.44
2018-02-23T03:02:57.756Z,1017.40
2018-02-23T03:03:57.741Z,1017.48
2018-02-23T03:04:57.726Z,1017.47
2018-02-23T03:05:57.714Z,1017.39
2018-02-23T03:06:57.701Z,1017.40
2018-02-23T03:07:57.683Z,1017.42
2018-02-23T03:08:57.668Z,1017.48
2018-02-23T03:09:57.656Z,1017.45
2018-02-23T03:10:57.641Z,1017.43
2018-02-23T03:11:57.626Z,1017.42
2018-02-23T03:12:57.612Z,1017.40
2018-02-23T03:13:57.598Z,1017.41
2018-02-23T03:14:57.585Z,1017.47
2018-02-23T03:15:57.573Z,1017.46
2018-02-23T03:16:57.560Z,1017.46
2018-02-23T03:17:57.548Z,1017.42
2018-02-23T03:18:57.534Z,1017.54
2018-02-23T03:19:57.517Z,1017.40
2018-02-23T03:20:57.505Z,1017.50
2018-02-23T03:21:57.489Z,1017.53
2018-02-23T03:22:57.476Z,1017.55
2018-02-23T03:23:57.459Z,1017.43
2018-02-23T03:24:57.445Z,1017.44
2018-02-23T03:25:57.431Z,1017.45
2018-02-23T03:26:57.418Z,1017.49
2018-02-23T03:27:57.405Z,1017.37
2018-02-23T03:28:57.390Z,1017.38
2018-02-23T03:29:57.376Z,1017.40
2018-02-23T03:30:57.363Z,1017.44
2018-02-23T03:31:57.350Z,1017.44
2018-02-23T03:32:57.337Z,1017.41
2018-02-23T03:33:57.324Z,1017.43
2018-02-23T03:34:57.310Z,1017.47
2018-02-23T03:35:57.296Z,1017.42
2018-02-23T03:36:57.281Z,1017.41
2018-02-23T03:37:57.268Z,1017.40
2018-02-23T03:38:57.253Z,1017.37
2018-02-23T03:39:57.240Z,1017.41
2018-02-23T03:40:57.224Z,1017.41
2018-02-23T03:41:57.210Z,1017.36
2018-02-23T03:42:57.195Z,1017.35
2018-02-23T03:43:57.181Z,1017.35
2018-02-23T03:44:57.166Z,1017.40
2018-02-23T03:45:57.152Z,1017.38
2018-02-23T03:46:57.139Z,1017.41
2018-02-23T03:47:57.128Z,1017.45
2018-02-23T03:48:57.113Z,1017.39
2018-02-23T03:49:57.099Z,1017.44
2018-02-23T03:50:57.085Z,1017.41
2018-02-23T03:51:57.072Z,1017.41
2018-02-23T03:52:57.062Z,1017.34
2018-02-23T03:53:57.044Z,1017.37
2018-02-23T03:54:57.030Z,1017.34
2018-02-23T03:55:57.014Z,1017.36
2018-02-23T03:56:56.998Z,1017.31
2018-02-23T03:57:56.985Z,1017.35
2018-02-23T03:58:56.971Z,1017.30
2018-02-23T03:59:56.960Z,1017.29
2018-02-23T04:00:56.946Z,1017.32
2018-02-23T04:01:56.933Z,1017.42
2018-02-23T04:02:56.919Z,1017.39
2018-02-23T04:03:56.901Z,1017.35
2018-02-23T04:04:56.887Z,1017.40
2018-02-23T04:05:56.873Z,1017.38
2018-02-23T04:06:56.861Z,1017.38
2018-02-23T04:07:56.844Z,1017.36
2018-02-23T04:08:56.831Z,1017.31
2018-02-23T04:09:56.819Z,1017.46
2018-02-23T04:10:56.806Z,1017.40
2018-02-23T04:11:56.793Z,1017.39
2018-02-23T04:12:56.778Z,1017.37
2018-02-23T04:13:56.764Z,1017.40
2018-02-23T04:14:56.751Z,1017.40
2018-02-23T04:15:56.736Z,1017.41
2018-02-23T04:16:56.723Z,1017.40
2018-02-23T04:17:56.709Z,1017.42
2018-02-23T04:18:56.694Z,1017.41
2018-02-23T04:19:56.677Z,1017.38
2018-02-23T04:20:56.665Z,1017.39
2018-02-23T04:21:56.650Z,1017.43
2018-02-23T04:22:56.635Z,1017.43
2018-02-23T04:23:56.622Z,1017.45
2018-02-23T04:24:56.606Z,1017.45
2018-02-23T04:25:56.593Z,1017.43
2018-02-23T04:26:56.582Z,1017.43
2018-02-23T04:27:56.569Z,1017.39
2018-02-23T04:28:56.554Z,1017.47
2018-02-23T04:29:56.541Z,1017.38
2018-02-23T04:30:56.530Z,1017.41
2018-02-23T04:31:56.512Z,1017.41
2018-02-23T04:32:56.498Z,1017.46
2018-02-23T04:33:56.487Z,1017.45
2018-02-23T04:34:56.470Z,1017.43
2018-02-23T04:35:56.452Z,1017.46
2018-02-23T04:36:56.439Z,1017.45
2018-02-23T04:37:56.427Z,1017.47
2018-02-23T04:38:56.411Z,1017.48
2018-02-23T04:39:56.396Z,1017.48
2018-02-23T04:40:56.384Z,1017.54
2018-02-23T04:41:56.369Z,1017.54
2018-02-23T04:42:56.355Z,1017.53
2018-02-23T04:43:56.344Z,1017.55
2018-02-23T04:44:56.328Z,1017.48
2018-02-23T04:45:56.316Z,1017.52
2018-02-23T04:46:56.304Z,1017.53
2018-02-23T04:47:56.286Z,1017.53
2018-02-23T04:48:56.274Z,1017.56
2018-02-23T04:49:56.258Z,1017.59
2018-02-23T04:50:56.247Z,1017.60
2018-02-23T04:51:56.229Z,1017.51
2018-02-23T04:52:56.214Z,1017.54
2018-02-23T04:53:56.200Z,1017.53
2018-02-23T04:54:56.187Z,1017.56
2018-02-23T04:55:56.179Z,1017.49
2018-02-23T04:56:56.157Z,1017.51
2018-02-23T04:57:56.144Z,1017.57
2018-02-23T04:58:56.130Z,1017.55
2018-02-23T04:59:56.119Z,1017.51
2018-02-23T05:00:56.104Z,1017.51
2018-02-23T05:01:56.092Z,1017.47
2018-02-23T05:02:56.078Z,1017.46
2018-02-23T05:03:56.060Z,1017.53
2018-02-23T05:04:56.046Z,1017.54
2018-02-23T05:05:56.032Z,1017.52
2018-02-23T05:06:56.023Z,1017.51
2018-02-23T05:07:56.005Z,1017.54
2018-02-23T05:08:55.993Z,1017.55
2018-02-23T05:09:55.980Z,1017.55
2018-02-23T05:10:55.964Z,1017.54
2018-02-23T05:11:55.950Z,1017.55
2018-02-23T05:12:55.936Z,1017.54
2018-02-23T05:13:55.921Z,1017.54
2018-02-23T05:14:55.908Z,1017.58
2018-02-23T05:15:55.891Z,1017.59
2018-02-23T05:16:55.876Z,1017.55
2018-02-23T05:17:55.862Z,1017.62
2018-02-23T05:18:55.848Z,1017.55
2018-02-23T05:19:55.832Z,1017.60
2018-02-23T05:20:55.820Z,1017.59
2018-02-23T05:21:55.806Z,1017.61
2018-02-23T05:22:55.791Z,1017.66
2018-02-23T05:23:55.780Z,1017.67
2018-02-23T05:24:55.767Z,1017.66
2018-02-23T05:25:55.751Z,1017.67
2018-02-23T05:26:55.737Z,1017.66
2018-02-23T05:27:55.724Z,1017.70
2018-02-23T05:28:55.712Z,1017.67
2018-02-23T05:29:55.696Z,1017.72
2018-02-23T05:30:55.682Z,1017.66
2018-02-23T05:31:55.663Z,1017.70
2018-02-23T05:32:55.649Z,1017.64
2018-02-23T05:33:55.635Z,1017.68
2018-02-23T05:34:55.622Z,1017.69
2018-02-23T05:35:55.606Z,1017.68
2018-02-23T05:36:55.596Z,1017.63
2018-02-23T05:37:55.579Z,1017.62
2018-02-23T05:38:55.565Z,1017.62
2018-02-23T05:39:55.552Z,1017.62
2018-02-23T05:40:55.540Z,1017.61
2018-02-23T05:41:55.526Z,1017.59
2018-02-23T05:42:55.511Z,1017.61
2018-02-23T05:43:55.495Z,1017.60
2018-02-23T05:44:55.483Z,1017.56
2018-02-23T05:45:55.470Z,1017.58
2018-02-23T05:46:55.455Z,1017.61
2018-02-23T05:47:55.437Z,1017.59
2018-02-23T05:48:55.423Z,1017.62
2018-02-23T05:49:55.409Z,1017.55
2018-02-23T05:50:55.394Z,1017.52
2018-02-23T05:51:55.380Z,1017.55
2018-02-23T05:52:55.366Z,1017.52
2018-02-23T05:53:55.352Z,1017.53
2018-02-23T05:54:55.338Z,1017.55
2018-02-23T05:55:55.325Z,1017.49
2018-02-23T05:56:55.313Z,1017.49
2018-02-23T05:57:55.299Z,1017.47
2018-02-23T05:58:55.285Z,1017.56
2018-02-23T05:59:55.276Z,1017.50
2018-02-23T06:00:55.257Z,1017.48
2018-02-23T06:01:55.242Z,1017.55
2018-02-23T06:02:55.227Z,1017.53
2018-02-23T06:03:55.210Z,1017.50
2018-02-23T06:04:55.197Z,1017.57
2018-02-23T06:05:55.182Z,1017.54
2018-02-23T06:06:55.169Z,1017.59
2018-02-23T06:07:55.156Z,1017.61
2018-02-23T06:08:55.143Z,1017.58
2018-02-23T06:09:55.129Z,1017.73
2018-02-23T06:10:55.114Z,1017.62
2018-02-23T06:11:55.097Z,1017.63
2018-02-23T06:12:55.084Z,1017.65
2018-02-23T06:13:55.072Z,1017.60
2018-02-23T06:14:55.055Z,1017.68
2018-02-23T06:15:55.040Z,1017.63
2018-02-23T06:16:55.029Z,1017.68
2018-02-23T06:17:55.013Z,1017.65
2018-02-23T06:18:54.998Z,1017.66
2018-02-23T06:19:54.989Z,1017.65
2018-02-23T06:20:54.973Z,1017.71
2018-02-23T06:21:54.960Z,1017.74
2018-02-23T06:22:54.944Z,1017.73
2018-02-23T06:23:54.930Z,1017.74
2018-02-23T06:25:54.906Z,1017.69
2018-02-23T06:26:54.888Z,1017.76
2018-02-23T06:27:54.868Z,1017.78
2018-02-23T06:28:54.855Z,1017.76
2018-02-23T06:29:54.841Z,1017.73
2018-02-23T06:30:54.828Z,1017.74
2018-02-23T06:31:54.813Z,1017.80
2018-02-23T06:32:54.799Z,1017.84
2018-02-23T06:33:54.783Z,1017.84
2018-02-23T06:34:54.770Z,1017.88
2018-02-23T06:35:54.758Z,1017.85
2018-02-23T06:36:54.745Z,1017.85
2018-02-23T06:37:54.731Z,1017.91
2018-02-23T06:38:54.717Z,1017.88
2018-02-23T06:39:54.703Z,1017.89
2018-02-23T06:40:54.687Z,1017.92
2018-02-23T06:41:54.674Z,1017.88
2018-02-23T06:42:54.660Z,1017.88
2018-02-23T06:43:54.642Z,1017.89
2018-02-23T06:44:54.629Z,1017.94
2018-02-23T06:45:54.614Z,1017.89
2018-02-23T06:46:54.600Z,1017.88
2018-02-23T06:47:54.588Z,1017.92
2018-02-23T06:48:54.571Z,1017.91
2018-02-23T06:49:54.557Z,1017.96
2018-02-23T06:50:54.543Z,1017.94
2018-02-23T06:51:54.532Z,1017.98
2018-02-23T06:52:54.517Z,1017.94
2018-02-23T06:53:54.505Z,1018.03
2018-02-23T06:54:54.490Z,1018.05
2018-02-23T06:55:54.475Z,1018.07
2018-02-23T06:56:54.461Z,1018.12
2018-02-23T06:57:54.448Z,1018.23
2018-02-23T06:58:54.434Z,1018.19
2018-02-23T06:59:54.415Z,1018.19
2018-02-23T07:00:54.404Z,1018.28
2018-02-23T07:01:54.389Z,1018.21
2018-02-23T07:02:54.384Z,1018.20
2018-02-23T07:03:54.364Z,1018.33
2018-02-23T07:04:54.352Z,1018.32
2018-02-23T07:05:54.338Z,1018.19
2018-02-23T07:06:54.325Z,1018.13
2018-02-23T07:07:54.315Z,1018.11
2018-02-23T07:08:54.303Z,1018.11
2018-02-23T07:09:54.291Z,1018.03
2018-02-23T07:10:54.280Z,1018.08
2018-02-23T07:11:54.263Z,1018.12
2018-02-23T07:12:54.252Z,1018.09
2018-02-23T07:13:54.240Z,1018.13
2018-02-23T07:14:54.227Z,1018.17
2018-02-23T07:15:54.218Z,1018.11
2018-02-23T07:16:54.207Z,1018.15
2018-02-23T07:17:54.195Z,1018.14
2018-02-23T07:18:54.183Z,1018.26
2018-02-23T07:19:54.171Z,1018.45
2018-02-23T07:20:54.160Z,1018.51
2018-02-23T07:21:54.147Z,1018.52
2018-02-23T07:22:54.137Z,1018.51
2018-02-23T07:23:54.120Z,1018.55
2018-02-23T07:24:54.109Z,1018.60
2018-02-23T07:25:54.098Z,1018.63
2018-02-23T07:26:54.088Z,1018.68
2018-02-23T07:27:54.076Z,1018.69
2018-02-23T07:28:54.067Z,1018.74
2018-02-23T07:29:54.057Z,1018.73
2018-02-23T07:30:54.049Z,1018.76
2018-02-23T07:31:54.039Z,1018.75
2018-02-23T07:32:54.031Z,1018.75
2018-02-23T07:33:54.022Z,1018.78
2018-02-23T07:34:54.013Z,1018.84
2018-02-23T07:35:54.004Z,1018.84
2018-02-23T07:36:53.997Z,1018.92
2018-02-23T07:37:53.998Z,1018.90
2018-02-23T07:38:53.982Z,1018.94
2018-02-23T07:39:53.972Z,1019.01
2018-02-23T07:40:53.965Z,1019.07
2018-02-23T07:41:53.959Z,1019.09
2018-02-23T07:42:53.952Z,1019.08
2018-02-23T07:43:53.945Z,1019.08
2018-02-23T07:44:53.940Z,1019.17
2018-02-23T07:45:53.936Z,1019.11
2018-02-23T07:46:53.928Z,1019.13
2018-02-23T07:47:53.925Z,1019.15
2018-02-23T07:48:53.920Z,1019.10
2018-02-23T07:49:53.916Z,1019.17
2018-02-23T07:50:53.911Z,1019.17
2018-02-23T07:51:53.907Z,1019.23
2018-02-23T07:52:53.903Z,1019.18
2018-02-23T07:53:53.899Z,1019.26
2018-02-23T07:54:53.900Z,1019.30
2018-02-23T07:55:53.888Z,1019.29
2018-02-23T07:56:53.885Z,1019.29
2018-02-23T07:57:53.882Z,1019.26
2018-02-23T07:58:53.879Z,1019.35
2018-02-23T07:59:53.879Z,1019.29
2018-02-23T08:00:53.871Z,1019.31
2018-02-23T08:01:53.869Z,1019.32
2018-02-23T08:02:53.864Z,1019.34
2018-02-23T08:03:53.864Z,1019.31
2018-02-23T08:04:53.862Z,1019.29
2018-02-23T08:05:53.858Z,1019.37
2018-02-23T08:06:53.855Z,1019.34
2018-02-23T08:07:53.888Z,1019.44
2018-02-23T08:08:53.848Z,1018.74
2018-02-23T08:09:53.846Z,1018.79
2018-02-23T08:10:53.842Z,1018.72
2018-02-23T08:11:53.835Z,1018.64
2018-02-23T08:12:53.834Z,1018.74
2018-02-23T08:13:53.829Z,1018.72
2018-02-23T08:14:53.828Z,1018.75
2018-02-23T08:15:53.826Z,1018.71
2018-02-23T08:16:53.822Z,1018.73
2018-02-23T08:17:53.820Z,1018.85
2018-02-23T08:18:53.817Z,1018.80
2018-02-23T08:19:53.808Z,1018.82
2018-02-23T08:20:53.807Z,1018.85
2018-02-23T08:21:53.803Z,1018.77
2018-02-23T08:22:53.800Z,1018.78
2018-02-23T08:23:53.795Z,1018.85
2018-02-23T08:24:53.792Z,1018.77
2018-02-23T08:25:53.791Z,1018.82
2018-02-23T08:26:53.785Z,1018.77
2018-02-23T08:27:53.783Z,1018.79
2018-02-23T08:28:53.780Z,1018.85
2018-02-23T08:29:53.778Z,1018.83
2018-02-23T08:30:53.772Z,1018.72
2018-02-23T08:31:53.768Z,1018.75
2018-02-23T08:32:53.765Z,1018.77
2018-02-23T08:33:53.763Z,1018.76
2018-02-23T08:34:53.763Z,1018.82
2018-02-23T08:35:53.751Z,1018.72
2018-02-23T08:36:53.754Z,1018.82
2018-02-23T08:37:53.744Z,1018.76
2018-02-23T08:38:53.741Z,1018.76
2018-02-23T08:39:53.737Z,1018.65
2018-02-23T08:40:53.733Z,1018.68
2018-02-23T08:41:53.728Z,1018.73
2018-02-23T08:42:53.724Z,1018.64
2018-02-23T08:43:53.723Z,1018.66
2018-02-23T08:44:53.719Z,1018.66
2018-02-23T08:45:53.715Z,1018.65
2018-02-23T08:46:53.711Z,1018.75
2018-02-23T08:47:53.706Z,1018.73
2018-02-23T08:48:53.702Z,1018.84
2018-02-23T08:49:53.701Z,1018.69
2018-02-23T08:50:53.694Z,1018.75
2018-02-23T08:51:53.685Z,1018.79
2018-02-23T08:52:53.681Z,1018.73
2018-02-23T08:53:53.677Z,1018.73
2018-02-23T08:54:53.675Z,1018.87
2018-02-23T08:55:53.670Z,1018.86
2018-02-23T08:56:53.666Z,1018.70
2018-02-23T08:57:53.662Z,1018.80
2018-02-23T08:58:53.660Z,1018.72
2018-02-23T08:59:53.657Z,1018.77
2018-02-23T09:00:53.654Z,1018.66
2018-02-23T09:01:53.650Z,1018.68
2018-02-23T09:02:53.646Z,1018.64
2018-02-23T09:03:53.646Z,1018.60
2018-02-23T09:04:53.640Z,1018.73
2018-02-23T09:05:53.636Z,1018.73
2018-02-23T09:06:53.635Z,1018.64
2018-02-23T09:07:53.629Z,1018.65
2018-02-23T09:08:53.625Z,1019.00
2018-02-23T09:09:53.621Z,1018.72
2018-02-23T09:10:53.618Z,1018.72
2018-02-23T09:11:53.615Z,1018.70
2018-02-23T09:12:53.613Z,1018.69
2018-02-23T09:13:53.609Z,1018.81
2018-02-23T09:14:53.608Z,1018.70
2018-02-23T09:15:53.607Z,1018.66
2018-02-23T09:16:53.604Z,1018.64
2018-02-23T09:17:53.602Z,1018.74
2018-02-23T09:18:53.600Z,1018.82
2018-02-23T09:19:53.594Z,1018.76
2018-02-23T09:20:53.593Z,1018.81
2018-02-23T09:21:53.592Z,1018.92
2018-02-23T09:22:53.589Z,1018.81
2018-02-23T09:23:53.592Z,1018.95
2018-02-23T09:24:53.590Z,1018.83
2018-02-23T09:25:53.587Z,1018.88
2018-02-23T09:26:53.586Z,1018.96
2018-02-23T09:27:53.583Z,1018.87
2018-02-23T09:28:53.584Z,1018.92
2018-02-23T09:29:53.582Z,1018.95
2018-02-23T09:30:53.582Z,1018.98
2018-02-23T09:31:53.577Z,1018.91
2018-02-23T09:32:53.576Z,1019.05
2018-02-23T09:33:53.576Z,1019.02
2018-02-23T09:34:53.574Z,1018.99
2018-02-23T09:35:53.572Z,1018.96
2018-02-23T09:36:53.573Z,1018.91
2018-02-23T09:37:53.572Z,1019.01
2018-02-23T09:38:53.573Z,1019.14
2018-02-23T09:39:53.574Z,1019.06
2018-02-23T09:40:53.575Z,1019.09
2018-02-23T09:41:53.574Z,1019.07
2018-02-23T09:42:53.575Z,1019.13
2018-02-23T09:43:53.574Z,1019.30
2018-02-23T09:44:53.573Z,1019.16
2018-02-23T09:45:53.574Z,1019.21
2018-02-23T09:46:53.576Z,1019.23
2018-02-23T09:47:53.572Z,1019.38
2018-02-23T09:48:53.572Z,1019.44
2018-02-23T09:49:53.574Z,1019.24
2018-02-23T09:50:53.574Z,1019.16
2018-02-23T09:51:53.575Z,1019.08
2018-02-23T09:52:53.574Z,1019.06
2018-02-23T09:53:53.576Z,1019.12
2018-02-23T09:54:53.576Z,1019.03
2018-02-23T09:55:53.579Z,1019.11
2018-02-23T09:56:53.577Z,1019.15
2018-02-23T09:57:53.576Z,1019.20
2018-02-23T09:58:53.576Z,1019.29
2018-02-23T09:59:53.577Z,1019.31
2018-02-23T10:00:53.576Z,1019.23
2018-02-23T10:01:53.576Z,1019.29
2018-02-23T10:02:53.576Z,1019.24
2018-02-23T10:03:53.572Z,1019.11
2018-02-23T10:04:53.577Z,1018.85
2018-02-23T10:05:53.573Z,1018.95
2018-02-23T10:06:53.575Z,1018.84
2018-02-23T10:07:53.573Z,1018.81
2018-02-23T10:08:53.575Z,1018.86
2018-02-23T10:09:53.573Z,1018.93
2018-02-23T10:10:53.584Z,1018.88
2018-02-23T10:11:53.577Z,1018.88
2018-02-23T10:12:53.579Z,1018.81
2018-02-23T10:13:53.578Z,1018.77
2018-02-23T10:14:53.580Z,1018.82
2018-02-23T10:15:53.580Z,1018.87
2018-02-23T10:16:53.581Z,1018.75
2018-02-23T10:17:53.584Z,1018.80
2018-02-23T10:18:53.585Z,1018.81
2018-02-23T10:19:53.583Z,1018.74
2018-02-23T10:20:53.585Z,1018.84
2018-02-23T10:21:53.587Z,1018.92
2018-02-23T10:22:53.588Z,1018.79
2018-02-23T10:23:53.590Z,1018.85
2018-02-23T10:24:53.593Z,1018.92
2018-02-23T10:25:53.594Z,1018.76
2018-02-23T10:26:53.595Z,1018.79
2018-02-23T10:27:53.604Z,1018.85
2018-02-23T10:28:53.603Z,1018.83
2018-02-23T10:29:53.605Z,1018.79
2018-02-23T10:30:53.606Z,1018.85
2018-02-23T10:31:53.608Z,1018.71
2018-02-23T10:32:53.611Z,1018.75
2018-02-23T10:33:53.613Z,1018.88
2018-02-23T10:34:53.616Z,1018.87
2018-02-23T10:35:53.615Z,1018.80
2018-02-23T10:36:53.618Z,1018.72
2018-02-23T10:37:53.620Z,1018.76
2018-02-23T10:38:53.623Z,1018.78
2018-02-23T10:39:53.626Z,1018.77
2018-02-23T10:40:53.626Z,1018.67
2018-02-23T10:41:53.630Z,1018.66
2018-02-23T10:42:53.632Z,1018.65
2018-02-23T10:43:53.638Z,1018.66
2018-02-23T10:44:53.640Z,1018.67
2018-02-23T10:45:53.644Z,1018.76
2018-02-23T10:46:53.646Z,1018.63
2018-02-23T10:47:53.649Z,1018.64
2018-02-23T10:48:53.652Z,1018.56
2018-02-23T10:49:53.654Z,1018.51
2018-02-23T10:50:53.670Z,1018.62
2018-02-23T10:51:53.657Z,1018.55
2018-02-23T10:52:53.660Z,1018.53
2018-02-23T10:53:53.665Z,1018.46
2018-02-23T10:54:53.668Z,1018.47
2018-02-23T10:55:53.668Z,1018.47
2018-02-23T10:56:53.673Z,1018.41
2018-02-23T10:57:53.673Z,1018.42
2018-02-23T10:58:53.675Z,1018.44
2018-02-23T10:59:53.679Z,1018.51
2018-02-23T11:00:53.682Z,1018.39
2018-02-23T11:01:53.684Z,1018.38
2018-02-23T11:02:53.688Z,1018.34
2018-02-23T11:03:53.690Z,1018.32
2018-02-23T11:04:53.690Z,1018.35
2018-02-23T11:05:53.693Z,1018.28
2018-02-23T11:06:53.695Z,1018.41
2018-02-23T11:07:53.695Z,1018.29
2018-02-23T11:08:53.698Z,1018.37
2018-02-23T11:09:53.704Z,1018.38
2018-02-23T11:10:53.704Z,1018.29
2018-02-23T11:11:53.704Z,1018.28
2018-02-23T11:12:53.705Z,1018.26
2018-02-23T11:13:53.706Z,1018.26
2018-02-23T11:14:53.708Z,1018.23
2018-02-23T11:15:53.712Z,1018.23
2018-02-23T11:16:53.715Z,1018.20
2018-02-23T11:17:53.716Z,1018.19
2018-02-23T11:18:53.716Z,1018.20
2018-02-23T11:19:53.720Z,1018.13
2018-02-23T11:20:53.720Z,1018.11
2018-02-23T11:21:53.722Z,1018.10
2018-02-23T11:22:53.723Z,1018.14
2018-02-23T11:23:53.721Z,1018.11
2018-02-23T11:24:53.722Z,1018.05
2018-02-23T11:25:53.723Z,1018.02
2018-02-23T11:26:53.725Z,1018.00
2018-02-23T11:27:53.728Z,1018.12
2018-02-23T11:28:53.728Z,1017.98
2018-02-23T11:29:53.729Z,1018.03
2018-02-23T11:30:53.731Z,1017.98
2018-02-23T11:31:53.727Z,1017.93
2018-02-23T11:32:53.731Z,1017.91
2018-02-23T11:33:53.728Z,1017.92
2018-02-23T11:34:53.729Z,1017.90
2018-02-23T11:35:53.728Z,1017.84
2018-02-23T11:36:53.728Z,1017.86
2018-02-23T11:37:53.730Z,1017.85
2018-02-23T11:38:53.729Z,1017.83
2018-02-23T11:39:53.732Z,1017.96
2018-02-23T11:40:53.732Z,1017.82
2018-02-23T11:41:53.732Z,1017.76
2018-02-23T11:42:53.732Z,1017.64
2018-02-23T11:43:53.731Z,1017.66
2018-02-23T11:44:53.730Z,1017.60
2018-02-23T11:45:53.729Z,1017.68
2018-02-23T11:46:53.728Z,1017.69
2018-02-23T11:47:53.722Z,1017.69
2018-02-23T11:48:53.721Z,1017.58
2018-02-23T11:49:53.720Z,1017.51
2018-02-23T11:50:53.717Z,1017.51
2018-02-23T11:51:53.713Z,1017.48
2018-02-23T11:52:53.710Z,1017.52
2018-02-23T11:53:53.706Z,1017.42
2018-02-23T11:54:53.703Z,1017.44
2018-02-23T11:55:53.704Z,1017.42
2018-02-23T11:56:53.697Z,1017.45
2018-02-23T11:57:53.691Z,1017.35
2018-02-23T11:58:53.688Z,1017.46
2018-02-23T11:59:53.682Z,1017.53
2018-02-23T12:00:53.679Z,1017.65
2018-02-23T12:01:53.670Z,1017.47
2018-02-23T12:02:53.665Z,1017.60
2018-02-23T12:03:53.656Z,1017.41
2018-02-23T12:04:53.649Z,1017.42
2018-02-23T12:05:53.643Z,1017.38